sensor_id;sensor_type;location;lat;lon;timestamp;pressure;altitude;pressure_sealevel;temperature;humidity
47522;BME280;32291;52.010;4.446;2023-04-01T00:00:07;77037.44;;;-144.67;100.00
47522;BME280;32291;52.010;4.446;2023-04-01T00:01:12;77041.72;;;-144.67;100.00
47522;BME280;32291;52.010;4.446;2023-04-01T00:02:17;77037.44;;;-144.67;100.00
47522;BME280;32291;52.010;4.446;2023-04-01T00:03:21;77039.56;;;-144.67;100.00
47522;BME280;32291;52.010;4.446;2023-04-01T00:04:23;77035.28;;;-144.67;100.00
47522;BME280;32291;52.010;4.446;2023-04-01T00:05:25;77033.16;;;-144.67;100.00
47522;BME280;32291;52.010;4.446;2023-04-01T00:06:27;77046.00;;;-144.67;100.00
47522;BME280;32291;52.010;4.446;2023-04-01T00:07:29;77039.56;;;-144.67;100.00
47522;BME280;32291;52.010;4.446;2023-04-01T00:08:32;77039.56;;;-144.67;100.00
47522;BME280;32291;52.010;4.446;2023-04-01T00:09:34;77043.84;;;-144.67;100.00
47522;BME280;32291;52.010;4.446;2023-04-01T00:10:36;77033.16;;;-144.67;100.00
47522;BME280;32291;52.010;4.446;2023-04-01T00:11:37;77033.16;;;-144.67;100.00
47522;BME280;32291;52.010;4.446;2023-04-01T00:12:40;77037.44;;;-144.67;100.00
47522;BME280;32291;52.010;4.446;2023-04-01T00:13:43;77033.16;;;-144.67;100.00
47522;BME280;32291;52.010;4.446;2023-04-01T00:14:44;77041.72;;;-144.67;100.00
47522;BME280;32291;52.010;4.446;2023-04-01T00:15:46;77043.84;;;-144.67;100.00
47522;BME280;32291;52.010;4.446;2023-04-01T00:16:47;77037.44;;;-144.67;100.00
47522;BME280;32291;52.010;4.446;2023-04-01T00:17:49;77037.44;;;-144.67;100.00
47522;BME280;32291;52.010;4.446;2023-04-01T00:18:51;77050.25;;;-144.67;100.00
47522;BME280;32291;52.010;4.446;2023-04-01T00:19:55;77046.00;;;-144.67;100.00
47522;BME280;32291;52.010;4.446;2023-04-01T00:20:57;77050.25;;;-144.67;100.00
47522;BME280;32291;52.010;4.446;2023-04-01T00:21:59;77050.25;;;-144.67;100.00
47522;BME280;32291;52.010;4.446;2023-04-01T00:23:00;77054.56;;;-144.67;100.00
47522;BME280;32291;52.010;4.446;2023-04-01T00:24:02;77054.56;;;-144.67;100.00
47522;BME280;32291;52.010;4.446;2023-04-01T00:25:05;77058.81;;;-144.67;100.00
47522;BME280;32291;52.010;4.446;2023-04-01T00:26:07;77054.56;;;-144.67;100.00
47522;BME280;32291;52.010;4.446;2023-04-01T00:27:09;77063.09;;;-144.67;100.00
47522;BME280;32291;52.010;4.446;2023-04-01T00:28:11;77056.69;;;-144.67;100.00
47522;BME280;32291;52.010;4.446;2023-04-01T00:29:13;77054.56;;;-144.67;100.00
47522;BME280;32291;52.010;4.446;2023-04-01T00:30:15;77056.69;;;-144.67;100.00
47522;BME280;32291;52.010;4.446;2023-04-01T00:31:17;77060.97;;;-144.67;100.00
47522;BME280;32291;52.010;4.446;2023-04-01T00:32:19;77067.38;;;-144.67;100.00
47522;BME280;32291;52.010;4.446;2023-04-01T00:33:20;77063.09;;;-144.67;100.00
47522;BME280;32291;52.010;4.446;2023-04-01T00:34:22;77071.66;;;-144.67;100.00
47522;BME280;32291;52.010;4.446;2023-04-01T00:35:25;77063.09;;;-144.67;100.00
47522;BME280;32291;52.010;4.446;2023-04-01T00:36:26;77060.97;;;-144.67;100.00
47522;BME280;32291;52.010;4.446;2023-04-01T00:37:29;77078.09;;;-144.67;100.00
47522;BME280;32291;52.010;4.446;2023-04-01T00:38:31;77080.22;;;-144.67;100.00
47522;BME280;32291;52.010;4.446;2023-04-01T00:39:34;77080.22;;;-144.67;100.00
47522;BME280;32291;52.010;4.446;2023-04-01T00:40:41;77084.50;;;-144.67;100.00
47522;BME280;32291;52.010;4.446;2023-04-01T00:41:43;77078.09;;;-144.67;100.00
47522;BME280;32291;52.010;4.446;2023-04-01T00:42:45;77078.09;;;-144.67;100.00
47522;BME280;32291;52.010;4.446;2023-04-01T00:43:50;77073.81;;;-144.67;100.00
47522;BME280;32291;52.010;4.446;2023-04-01T00:44:54;77080.22;;;-144.67;100.00
47522;BME280;32291;52.010;4.446;2023-04-01T00:45:57;77086.66;;;-144.67;100.00
47522;BME280;32291;52.010;4.446;2023-04-01T00:46:59;77088.78;;;-144.67;100.00
47522;BME280;32291;52.010;4.446;2023-04-01T00:48:09;77088.78;;;-144.67;100.00
47522;BME280;32291;52.010;4.446;2023-04-01T00:49:13;77095.22;;;-144.67;100.00
47522;BME280;32291;52.010;4.446;2023-04-01T00:50:16;77093.06;;;-144.67;100.00
47522;BME280;32291;52.010;4.446;2023-04-01T00:51:24;77090.94;;;-144.67;100.00
47522;BME280;32291;52.010;4.446;2023-04-01T00:52:27;77097.34;;;-144.67;100.00
47522;BME280;32291;52.010;4.446;2023-04-01T00:53:31;77088.78;;;-144.67;100.00
47522;BME280;32291;52.010;4.446;2023-04-01T00:54:35;77093.06;;;-144.67;100.00
47522;BME280;32291;52.010;4.446;2023-04-01T00:55:43;77088.78;;;-144.67;100.00
47522;BME280;32291;52.010;4.446;2023-04-01T00:57:05;77093.06;;;-144.67;100.00
47522;BME280;32291;52.010;4.446;2023-04-01T00:58:15;77090.94;;;-144.67;100.00
47522;BME280;32291;52.010;4.446;2023-04-01T00:59:30;77097.34;;;-144.67;100.00
47522;BME280;32291;52.010;4.446;2023-04-01T01:00:35;77101.63;;;-144.67;100.00
47522;BME280;32291;52.010;4.446;2023-04-01T01:01:38;77110.19;;;-144.67;100.00
47522;BME280;32291;52.010;4.446;2023-04-01T01:02:43;77099.50;;;-144.67;100.00
47522;BME280;32291;52.010;4.446;2023-04-01T01:03:45;77105.91;;;-144.67;100.00
47522;BME280;32291;52.010;4.446;2023-04-01T01:04:47;77112.34;;;-144.67;100.00
47522;BME280;32291;52.010;4.446;2023-04-01T01:08:06;77112.34;;;-144.67;100.00
47522;BME280;32291;52.010;4.446;2023-04-01T01:10:57;77097.34;;;-144.67;100.00
47522;BME280;32291;52.010;4.446;2023-04-01T01:12:25;77095.22;;;-144.67;100.00
47522;BME280;32291;52.010;4.446;2023-04-01T01:13:43;77112.34;;;-144.67;100.00
47522;BME280;32291;52.010;4.446;2023-04-01T01:16:30;77105.91;;;-144.67;100.00
47522;BME280;32291;52.010;4.446;2023-04-01T01:23:36;77120.91;;;-144.67;100.00
47522;BME280;32291;52.010;4.446;2023-04-01T01:27:40;77127.31;;;-144.67;100.00
47522;BME280;32291;52.010;4.446;2023-04-01T01:30:48;77123.03;;;-144.67;100.00
47522;BME280;32291;52.010;4.446;2023-04-01T01:32:16;77127.31;;;-144.67;100.00
47522;BME280;32291;52.010;4.446;2023-04-01T01:33:51;77120.91;;;-144.67;100.00
47522;BME280;32291;52.010;4.446;2023-04-01T01:36:32;77131.59;;;-144.67;100.00
47522;BME280;32291;52.010;4.446;2023-04-01T01:37:40;77123.03;;;-144.67;100.00
47522;BME280;32291;52.010;4.446;2023-04-01T01:38:45;77127.31;;;-144.67;100.00
47522;BME280;32291;52.010;4.446;2023-04-01T01:39:56;77120.91;;;-144.67;100.00
47522;BME280;32291;52.010;4.446;2023-04-01T01:41:02;77127.31;;;-144.67;100.00
47522;BME280;32291;52.010;4.446;2023-04-01T01:42:11;77127.31;;;-144.67;100.00
47522;BME280;32291;52.010;4.446;2023-04-01T01:43:21;77129.47;;;-144.67;100.00
47522;BME280;32291;52.010;4.446;2023-04-01T01:44:26;77129.47;;;-144.67;100.00
47522;BME280;32291;52.010;4.446;2023-04-01T01:45:34;77131.59;;;-144.67;100.00
47522;BME280;32291;52.010;4.446;2023-04-01T01:46:39;77127.31;;;-144.67;100.00
47522;BME280;32291;52.010;4.446;2023-04-01T01:47:43;77127.31;;;-144.67;100.00
47522;BME280;32291;52.010;4.446;2023-04-01T01:48:48;77123.03;;;-144.67;100.00
47522;BME280;32291;52.010;4.446;2023-04-01T01:49:54;77127.31;;;-144.67;100.00
47522;BME280;32291;52.010;4.446;2023-04-01T01:50:58;77133.72;;;-144.67;100.00
47522;BME280;32291;52.010;4.446;2023-04-01T01:52:00;77133.72;;;-144.67;100.00
47522;BME280;32291;52.010;4.446;2023-04-01T01:53:09;77135.88;;;-144.67;100.00
47522;BME280;32291;52.010;4.446;2023-04-01T01:54:17;77140.16;;;-144.67;100.00
47522;BME280;32291;52.010;4.446;2023-04-01T01:55:31;77140.16;;;-144.67;100.00
47522;BME280;32291;52.010;4.446;2023-04-01T01:56:34;77135.88;;;-144.67;100.00
47522;BME280;32291;52.010;4.446;2023-04-01T01:57:39;77127.31;;;-144.67;100.00
47522;BME280;32291;52.010;4.446;2023-04-01T01:58:47;77140.16;;;-144.67;100.00
47522;BME280;32291;52.010;4.446;2023-04-01T01:59:56;77127.31;;;-144.67;100.00
47522;BME280;32291;52.010;4.446;2023-04-01T02:01:04;77135.88;;;-144.67;100.00
47522;BME280;32291;52.010;4.446;2023-04-01T02:02:09;77131.59;;;-144.67;100.00
47522;BME280;32291;52.010;4.446;2023-04-01T02:03:14;77135.88;;;-144.67;100.00
47522;BME280;32291;52.010;4.446;2023-04-01T02:04:19;77140.16;;;-144.67;100.00
47522;BME280;32291;52.010;4.446;2023-04-01T02:05:25;77148.72;;;-144.67;100.00
47522;BME280;32291;52.010;4.446;2023-04-01T02:06:32;77131.59;;;-144.67;100.00
47522;BME280;32291;52.010;4.446;2023-04-01T02:07:38;77146.56;;;-144.67;100.00
47522;BME280;32291;52.010;4.446;2023-04-01T02:09:03;77144.44;;;-144.67;100.00
47522;BME280;32291;52.010;4.446;2023-04-01T02:10:07;77144.44;;;-144.67;100.00
47522;BME280;32291;52.010;4.446;2023-04-01T02:11:12;77148.72;;;-144.67;100.00
47522;BME280;32291;52.010;4.446;2023-04-01T02:12:19;77148.72;;;-144.67;100.00
47522;BME280;32291;52.010;4.446;2023-04-01T02:13:29;77153.00;;;-144.67;100.00
47522;BME280;32291;52.010;4.446;2023-04-01T02:14:57;77159.41;;;-144.67;100.00
47522;BME280;32291;52.010;4.446;2023-04-01T02:16:11;77146.56;;;-144.67;100.00
47522;BME280;32291;52.010;4.446;2023-04-01T02:17:19;77148.72;;;-144.67;100.00
47522;BME280;32291;52.010;4.446;2023-04-01T02:18:22;77148.72;;;-144.67;100.00
47522;BME280;32291;52.010;4.446;2023-04-01T02:19:33;77148.72;;;-144.67;100.00
47522;BME280;32291;52.010;4.446;2023-04-01T02:20:38;77148.72;;;-144.67;100.00
47522;BME280;32291;52.010;4.446;2023-04-01T02:21:42;77157.28;;;-144.67;100.00
47522;BME280;32291;52.010;4.446;2023-04-01T02:22:50;77159.41;;;-144.67;100.00
47522;BME280;32291;52.010;4.446;2023-04-01T02:23:55;77153.00;;;-144.67;100.00
47522;BME280;32291;52.010;4.446;2023-04-01T02:25:07;77163.69;;;-144.67;100.00
47522;BME280;32291;52.010;4.446;2023-04-01T02:26:11;77157.28;;;-144.67;100.00
47522;BME280;32291;52.010;4.446;2023-04-01T02:27:14;77157.28;;;-144.67;100.00
47522;BME280;32291;52.010;4.446;2023-04-01T02:28:18;77161.56;;;-144.67;100.00
47522;BME280;32291;52.010;4.446;2023-04-01T02:29:24;77161.56;;;-144.67;100.00
47522;BME280;32291;52.010;4.446;2023-04-01T02:30:32;77165.84;;;-144.67;100.00
47522;BME280;32291;52.010;4.446;2023-04-01T02:31:35;77170.13;;;-144.67;100.00
47522;BME280;32291;52.010;4.446;2023-04-01T02:32:38;77159.41;;;-144.67;100.00
47522;BME280;32291;52.010;4.446;2023-04-01T02:33:41;77165.84;;;-144.67;100.00
47522;BME280;32291;52.010;4.446;2023-04-01T02:34:43;77165.84;;;-144.67;100.00
47522;BME280;32291;52.010;4.446;2023-04-01T02:35:46;77170.13;;;-144.67;100.00
47522;BME280;32291;52.010;4.446;2023-04-01T02:36:50;77165.84;;;-144.67;100.00
47522;BME280;32291;52.010;4.446;2023-04-01T02:37:54;77157.28;;;-144.67;100.00
47522;BME280;32291;52.010;4.446;2023-04-01T02:38:58;77167.97;;;-144.67;100.00
47522;BME280;32291;52.010;4.446;2023-04-01T02:40:07;77163.69;;;-144.67;100.00
47522;BME280;32291;52.010;4.446;2023-04-01T02:41:09;77167.97;;;-144.67;100.00
47522;BME280;32291;52.010;4.446;2023-04-01T02:42:11;77161.56;;;-144.67;100.00
47522;BME280;32291;52.010;4.446;2023-04-01T02:43:13;77170.13;;;-144.67;100.00
47522;BME280;32291;52.010;4.446;2023-04-01T02:44:15;77170.13;;;-144.67;100.00
47522;BME280;32291;52.010;4.446;2023-04-01T02:45:20;77163.69;;;-144.67;100.00
47522;BME280;32291;52.010;4.446;2023-04-01T02:46:21;77167.97;;;-144.67;100.00
47522;BME280;32291;52.010;4.446;2023-04-01T02:47:23;77161.56;;;-144.67;100.00
47522;BME280;32291;52.010;4.446;2023-04-01T02:48:24;77167.97;;;-144.67;100.00
47522;BME280;32291;52.010;4.446;2023-04-01T02:49:27;77167.97;;;-144.67;100.00
47522;BME280;32291;52.010;4.446;2023-04-01T02:50:28;77165.84;;;-144.67;100.00
47522;BME280;32291;52.010;4.446;2023-04-01T02:51:31;77167.97;;;-144.67;100.00
47522;BME280;32291;52.010;4.446;2023-04-01T02:52:33;77176.53;;;-144.67;100.00
47522;BME280;32291;52.010;4.446;2023-04-01T02:53:35;77170.13;;;-144.67;100.00
47522;BME280;32291;52.010;4.446;2023-04-01T02:54:38;77170.13;;;-144.67;100.00
47522;BME280;32291;52.010;4.446;2023-04-01T02:55:39;77170.13;;;-144.67;100.00
47522;BME280;32291;52.010;4.446;2023-04-01T02:56:41;77174.41;;;-144.67;100.00
47522;BME280;32291;52.010;4.446;2023-04-01T02:57:43;77170.13;;;-144.67;100.00
47522;BME280;32291;52.010;4.446;2023-04-01T02:58:44;77174.41;;;-144.67;100.00
47522;BME280;32291;52.010;4.446;2023-04-01T02:59:47;77167.97;;;-144.67;100.00
47522;BME280;32291;52.010;4.446;2023-04-01T03:00:48;77170.13;;;-144.67;100.00
47522;BME280;32291;52.010;4.446;2023-04-01T03:01:51;77176.53;;;-144.67;100.00
47522;BME280;32291;52.010;4.446;2023-04-01T03:02:53;77174.41;;;-144.67;100.00
47522;BME280;32291;52.010;4.446;2023-04-01T03:03:54;77174.41;;;-144.67;100.00
47522;BME280;32291;52.010;4.446;2023-04-01T03:04:56;77174.41;;;-144.67;100.00
47522;BME280;32291;52.010;4.446;2023-04-01T03:05:57;77176.53;;;-144.67;100.00
47522;BME280;32291;52.010;4.446;2023-04-01T03:07:01;77176.53;;;-144.67;100.00
47522;BME280;32291;52.010;4.446;2023-04-01T03:08:04;77174.41;;;-144.67;100.00
47522;BME280;32291;52.010;4.446;2023-04-01T03:09:06;77174.41;;;-144.67;100.00
47522;BME280;32291;52.010;4.446;2023-04-01T03:10:08;77182.97;;;-144.67;100.00
47522;BME280;32291;52.010;4.446;2023-04-01T03:11:11;77174.41;;;-144.67;100.00
47522;BME280;32291;52.010;4.446;2023-04-01T03:12:13;77189.38;;;-144.67;100.00
47522;BME280;32291;52.010;4.446;2023-04-01T03:13:15;77178.69;;;-144.67;100.00
47522;BME280;32291;52.010;4.446;2023-04-01T03:14:20;77182.97;;;-144.67;100.00
47522;BME280;32291;52.010;4.446;2023-04-01T03:15:22;77180.81;;;-144.67;100.00
47522;BME280;32291;52.010;4.446;2023-04-01T03:16:23;77185.09;;;-144.67;100.00
47522;BME280;32291;52.010;4.446;2023-04-01T03:17:25;77193.66;;;-144.67;100.00
47522;BME280;32291;52.010;4.446;2023-04-01T03:18:27;77191.53;;;-144.67;100.00
47522;BME280;32291;52.010;4.446;2023-04-01T03:19:28;77191.53;;;-144.67;100.00
47522;BME280;32291;52.010;4.446;2023-04-01T03:20:30;77193.66;;;-144.67;100.00
47522;BME280;32291;52.010;4.446;2023-04-01T03:21:32;77195.81;;;-144.67;100.00
47522;BME280;32291;52.010;4.446;2023-04-01T03:22:34;77191.53;;;-144.67;100.00
47522;BME280;32291;52.010;4.446;2023-04-01T03:23:36;77195.81;;;-144.67;100.00
47522;BME280;32291;52.010;4.446;2023-04-01T03:24:38;77185.09;;;-144.67;100.00
47522;BME280;32291;52.010;4.446;2023-04-01T03:25:40;77185.09;;;-144.67;100.00
47522;BME280;32291;52.010;4.446;2023-04-01T03:26:42;77189.38;;;-144.67;100.00
47522;BME280;32291;52.010;4.446;2023-04-01T03:27:43;77193.66;;;-144.67;100.00
47522;BME280;32291;52.010;4.446;2023-04-01T03:28:45;77191.53;;;-144.67;100.00
47522;BME280;32291;52.010;4.446;2023-04-01T03:29:47;77193.66;;;-144.67;100.00
47522;BME280;32291;52.010;4.446;2023-04-01T03:30:48;77200.09;;;-144.67;100.00
47522;BME280;32291;52.010;4.446;2023-04-01T03:31:50;77197.94;;;-144.67;100.00
47522;BME280;32291;52.010;4.446;2023-04-01T03:32:52;77193.66;;;-144.67;100.00
47522;BME280;32291;52.010;4.446;2023-04-01T03:33:54;77208.66;;;-144.67;100.00
47522;BME280;32291;52.010;4.446;2023-04-01T03:34:56;77212.94;;;-144.67;100.00
47522;BME280;32291;52.010;4.446;2023-04-01T03:35:58;77208.66;;;-144.67;100.00
47522;BME280;32291;52.010;4.446;2023-04-01T03:36:59;77204.38;;;-144.67;100.00
47522;BME280;32291;52.010;4.446;2023-04-01T03:38:01;77217.22;;;-144.67;100.00
47522;BME280;32291;52.010;4.446;2023-04-01T03:39:03;77212.94;;;-144.67;100.00
47522;BME280;32291;52.010;4.446;2023-04-01T03:40:06;77215.06;;;-144.67;100.00
47522;BME280;32291;52.010;4.446;2023-04-01T03:41:16;77221.50;;;-144.67;100.00
47522;BME280;32291;52.010;4.446;2023-04-01T03:42:18;77221.50;;;-144.67;100.00
47522;BME280;32291;52.010;4.446;2023-04-01T03:43:20;77221.50;;;-144.67;100.00
47522;BME280;32291;52.010;4.446;2023-04-01T03:44:22;77217.22;;;-144.67;100.00
47522;BME280;32291;52.010;4.446;2023-04-01T03:45:24;77219.34;;;-144.67;100.00
47522;BME280;32291;52.010;4.446;2023-04-01T03:46:25;77227.91;;;-144.67;100.00
47522;BME280;32291;52.010;4.446;2023-04-01T03:47:27;77225.78;;;-144.67;100.00
47522;BME280;32291;52.010;4.446;2023-04-01T03:48:29;77223.63;;;-144.67;100.00
47522;BME280;32291;52.010;4.446;2023-04-01T03:49:31;77223.63;;;-144.67;100.00
47522;BME280;32291;52.010;4.446;2023-04-01T03:50:34;77223.63;;;-144.67;100.00
47522;BME280;32291;52.010;4.446;2023-04-01T03:51:38;77225.78;;;-144.67;100.00
47522;BME280;32291;52.010;4.446;2023-04-01T03:52:40;77227.91;;;-144.67;100.00
47522;BME280;32291;52.010;4.446;2023-04-01T03:53:42;77234.31;;;-144.67;100.00
47522;BME280;32291;52.010;4.446;2023-04-01T03:54:44;77230.06;;;-144.67;100.00
47522;BME280;32291;52.010;4.446;2023-04-01T03:55:46;77230.06;;;-144.67;100.00
47522;BME280;32291;52.010;4.446;2023-04-01T03:56:48;77234.31;;;-144.67;100.00
47522;BME280;32291;52.010;4.446;2023-04-01T03:57:49;77236.47;;;-144.67;100.00
47522;BME280;32291;52.010;4.446;2023-04-01T03:58:51;77232.19;;;-144.67;100.00
47522;BME280;32291;52.010;4.446;2023-04-01T03:59:53;77238.63;;;-144.67;100.00
47522;BME280;32291;52.010;4.446;2023-04-01T04:00:54;77238.63;;;-144.67;100.00
47522;BME280;32291;52.010;4.446;2023-04-01T04:01:57;77247.16;;;-144.67;100.00
47522;BME280;32291;52.010;4.446;2023-04-01T04:02:59;77251.44;;;-144.67;100.00
47522;BME280;32291;52.010;4.446;2023-04-01T04:04:02;77251.44;;;-144.67;100.00
47522;BME280;32291;52.010;4.446;2023-04-01T04:05:04;77251.44;;;-144.67;100.00
47522;BME280;32291;52.010;4.446;2023-04-01T04:06:10;77245.03;;;-144.67;100.00
47522;BME280;32291;52.010;4.446;2023-04-01T04:07:12;77260.00;;;-144.67;100.00
47522;BME280;32291;52.010;4.446;2023-04-01T04:08:14;77257.88;;;-144.67;100.00
47522;BME280;32291;52.010;4.446;2023-04-01T04:09:16;77253.59;;;-144.67;100.00
47522;BME280;32291;52.010;4.446;2023-04-01T04:10:18;77255.72;;;-144.67;100.00
47522;BME280;32291;52.010;4.446;2023-04-01T04:11:22;77264.28;;;-144.67;100.00
47522;BME280;32291;52.010;4.446;2023-04-01T04:12:23;77257.88;;;-144.67;100.00
47522;BME280;32291;52.010;4.446;2023-04-01T04:13:25;77257.88;;;-144.67;100.00
47522;BME280;32291;52.010;4.446;2023-04-01T04:14:26;77262.16;;;-144.67;100.00
47522;BME280;32291;52.010;4.446;2023-04-01T04:15:28;77262.16;;;-144.67;100.00
47522;BME280;32291;52.010;4.446;2023-04-01T04:16:30;77268.56;;;-144.67;100.00
47522;BME280;32291;52.010;4.446;2023-04-01T04:17:32;77272.84;;;-144.67;100.00
47522;BME280;32291;52.010;4.446;2023-04-01T04:18:34;77275.00;;;-144.67;100.00
47522;BME280;32291;52.010;4.446;2023-04-01T04:19:36;77277.13;;;-144.67;100.00
47522;BME280;32291;52.010;4.446;2023-04-01T04:20:46;77272.84;;;-144.67;100.00
47522;BME280;32291;52.010;4.446;2023-04-01T04:21:52;77277.13;;;-144.67;100.00
47522;BME280;32291;52.010;4.446;2023-04-01T04:22:53;77277.13;;;-144.67;100.00
47522;BME280;32291;52.010;4.446;2023-04-01T04:23:55;77285.69;;;-144.67;100.00
47522;BME280;32291;52.010;4.446;2023-04-01T04:24:57;77272.84;;;-144.67;100.00
47522;BME280;32291;52.010;4.446;2023-04-01T04:26:07;77285.69;;;-144.67;100.00
47522;BME280;32291;52.010;4.446;2023-04-01T04:27:09;77289.97;;;-144.67;100.00
47522;BME280;32291;52.010;4.446;2023-04-01T04:28:10;77294.25;;;-144.67;100.00
47522;BME280;32291;52.010;4.446;2023-04-01T04:29:12;77292.13;;;-144.67;100.00
47522;BME280;32291;52.010;4.446;2023-04-01T04:30:14;77287.84;;;-144.67;100.00
47522;BME280;32291;52.010;4.446;2023-04-01T04:31:21;77296.41;;;-144.67;100.00
47522;BME280;32291;52.010;4.446;2023-04-01T04:32:23;77294.25;;;-144.67;100.00
47522;BME280;32291;52.010;4.446;2023-04-01T04:33:25;77302.81;;;-144.67;100.00
47522;BME280;32291;52.010;4.446;2023-04-01T04:34:27;77298.53;;;-144.67;100.00
47522;BME280;32291;52.010;4.446;2023-04-01T04:35:28;77296.41;;;-144.67;100.00
47522;BME280;32291;52.010;4.446;2023-04-01T04:36:31;77298.53;;;-144.67;100.00
47522;BME280;32291;52.010;4.446;2023-04-01T04:37:33;77298.53;;;-144.67;100.00
47522;BME280;32291;52.010;4.446;2023-04-01T04:38:35;77309.25;;;-144.67;100.00
47522;BME280;32291;52.010;4.446;2023-04-01T04:39:36;77304.97;;;-144.67;100.00
47522;BME280;32291;52.010;4.446;2023-04-01T04:40:40;77294.25;;;-144.67;100.00
47522;BME280;32291;52.010;4.446;2023-04-01T04:41:41;77298.53;;;-144.67;100.00
47522;BME280;32291;52.010;4.446;2023-04-01T04:42:43;77307.09;;;-144.67;100.00
47522;BME280;32291;52.010;4.446;2023-04-01T04:43:54;77307.09;;;-144.67;100.00
47522;BME280;32291;52.010;4.446;2023-04-01T04:44:57;77311.38;;;-144.67;100.00
47522;BME280;32291;52.010;4.446;2023-04-01T04:45:58;77324.22;;;-144.67;100.00
47522;BME280;32291;52.010;4.446;2023-04-01T04:47:01;77319.94;;;-144.67;100.00
47522;BME280;32291;52.010;4.446;2023-04-01T04:48:03;77319.94;;;-144.67;100.00
47522;BME280;32291;52.010;4.446;2023-04-01T04:49:05;77319.94;;;-144.67;100.00
47522;BME280;32291;52.010;4.446;2023-04-01T04:50:08;77328.50;;;-144.67;100.00
47522;BME280;32291;52.010;4.446;2023-04-01T04:51:17;77322.09;;;-144.67;100.00
47522;BME280;32291;52.010;4.446;2023-04-01T04:52:19;77324.22;;;-144.67;100.00
47522;BME280;32291;52.010;4.446;2023-04-01T04:53:21;77332.78;;;-144.67;100.00
47522;BME280;32291;52.010;4.446;2023-04-01T04:54:23;77330.66;;;-144.67;100.00
47522;BME280;32291;52.010;4.446;2023-04-01T04:55:25;77330.66;;;-144.67;100.00
47522;BME280;32291;52.010;4.446;2023-04-01T04:56:27;77341.34;;;-144.67;100.00
47522;BME280;32291;52.010;4.446;2023-04-01T04:57:29;77341.34;;;-144.67;100.00
47522;BME280;32291;52.010;4.446;2023-04-01T04:58:30;77337.06;;;-144.67;100.00
47522;BME280;32291;52.010;4.446;2023-04-01T04:59:32;77332.78;;;-144.67;100.00
47522;BME280;32291;52.010;4.446;2023-04-01T05:00:35;77341.34;;;-144.67;100.00
47522;BME280;32291;52.010;4.446;2023-04-01T05:01:36;77341.34;;;-144.67;100.00
47522;BME280;32291;52.010;4.446;2023-04-01T05:02:38;77347.78;;;-144.67;100.00
47522;BME280;32291;52.010;4.446;2023-04-01T05:03:40;77345.63;;;-144.67;100.00
47522;BME280;32291;52.010;4.446;2023-04-01T05:04:42;77358.47;;;-144.67;100.00
47522;BME280;32291;52.010;4.446;2023-04-01T05:05:52;77358.47;;;-144.67;100.00
47522;BME280;32291;52.010;4.446;2023-04-01T05:06:54;77360.63;;;-144.67;100.00
47522;BME280;32291;52.010;4.446;2023-04-01T05:07:56;77354.19;;;-144.67;100.00
47522;BME280;32291;52.010;4.446;2023-04-01T05:08:58;77360.63;;;-144.67;100.00
47522;BME280;32291;52.010;4.446;2023-04-01T05:09:59;77367.03;;;-144.67;100.00
47522;BME280;32291;52.010;4.446;2023-04-01T05:11:02;77375.59;;;-144.67;100.00
47522;BME280;32291;52.010;4.446;2023-04-01T05:12:04;77371.31;;;-144.67;100.00
47522;BME280;32291;52.010;4.446;2023-04-01T05:13:07;77371.31;;;-144.67;100.00
47522;BME280;32291;52.010;4.446;2023-04-01T05:14:16;77375.59;;;-144.67;100.00
47522;BME280;32291;52.010;4.446;2023-04-01T05:15:18;77375.59;;;-144.67;100.00
47522;BME280;32291;52.010;4.446;2023-04-01T05:16:20;77375.59;;;-144.67;100.00
47522;BME280;32291;52.010;4.446;2023-04-01T05:17:22;77386.28;;;-144.67;100.00
47522;BME280;32291;52.010;4.446;2023-04-01T05:18:24;77384.16;;;-144.67;100.00
47522;BME280;32291;52.010;4.446;2023-04-01T05:19:26;77388.44;;;-144.67;100.00
47522;BME280;32291;52.010;4.446;2023-04-01T05:20:28;77377.72;;;-144.67;100.00
47522;BME280;32291;52.010;4.446;2023-04-01T05:21:29;77375.59;;;-144.67;100.00
47522;BME280;32291;52.010;4.446;2023-04-01T05:22:31;77379.88;;;-144.67;100.00
47522;BME280;32291;52.010;4.446;2023-04-01T05:23:33;77384.16;;;-144.67;100.00
47522;BME280;32291;52.010;4.446;2023-04-01T05:24:35;77388.44;;;-144.67;100.00
47522;BME280;32291;52.010;4.446;2023-04-01T05:25:38;77384.16;;;-144.67;100.00
47522;BME280;32291;52.010;4.446;2023-04-01T05:26:40;77384.16;;;-144.67;100.00
47522;BME280;32291;52.010;4.446;2023-04-01T05:27:41;77388.44;;;-144.67;100.00
47522;BME280;32291;52.010;4.446;2023-04-01T05:28:43;77386.28;;;-144.67;100.00
47522;BME280;32291;52.010;4.446;2023-04-01T05:29:45;77394.84;;;-144.67;100.00
47522;BME280;32291;52.010;4.446;2023-04-01T05:30:46;77388.44;;;-144.67;100.00
47522;BME280;32291;52.010;4.446;2023-04-01T05:31:48;77397.00;;;-144.67;100.00
47522;BME280;32291;52.010;4.446;2023-04-01T05:32:50;77390.56;;;-144.67;100.00
47522;BME280;32291;52.010;4.446;2023-04-01T05:33:52;77405.56;;;-144.67;100.00
47522;BME280;32291;52.010;4.446;2023-04-01T05:34:55;77397.00;;;-144.67;100.00
47522;BME280;32291;52.010;4.446;2023-04-01T05:35:57;77397.00;;;-144.67;100.00
47522;BME280;32291;52.010;4.446;2023-04-01T05:37:07;77397.00;;;-144.67;100.00
47522;BME280;32291;52.010;4.446;2023-04-01T05:38:09;77403.41;;;-144.67;100.00
47522;BME280;32291;52.010;4.446;2023-04-01T05:39:11;77403.41;;;-144.67;100.00
47522;BME280;32291;52.010;4.446;2023-04-01T05:40:13;77405.56;;;-144.67;100.00
47522;BME280;32291;52.010;4.446;2023-04-01T05:41:15;77403.41;;;-144.67;100.00
47522;BME280;32291;52.010;4.446;2023-04-01T05:42:16;77401.28;;;-144.67;100.00
47522;BME280;32291;52.010;4.446;2023-04-01T05:43:18;77409.84;;;-144.67;100.00